Accueil
METAR-TAF:

METAR-TAF

Aéroports :

Aéroport international du Caire

Le Caire, Égypte

latitude: 30-08N, longitude: 031-24E, altitude: 64 m

Observation

Le bulletin a été fait il y a 41 minutes, à 09:30 UTC
Vent 10 kt de est/nord-est
Température 24°C
Humidité 54%
Pression 1017 hPa
Visibilité 10 km ou plus
Nuages épars à une hauteur de 2500 ft

METAR: HECA 180930Z 07010KT 9999 SCT025 24/14 Q1017 NOSIG

Heure: 12:11 (10:11 UTC)

Prévision

Le bulletin a été fait il y a 5 heures et 11 minutes, à 05:00 UTC
Prévision valable du 18 à 06 UTC au 19 à 12 UTC
Vent 7 kt de nord-est
Visibilité 10 km ou plus
Quelques nuages à une hauteur de 2500 ft
Temporairement
du 18 à 06 UTC au 18 à 09 UTC
Vent 3 kt de direction variable
Visibilité: 4000 m
brume sèche

TAF: HECA 180500Z 1806/1912 05007KT 9999 FEW025 TEMPO 1806/1809 VRB03KT 4000 HZ NSC

Observations et prévisions météorologiques de plus de 4000 aéroports (messages METAR et TAF).

Les stations disponibles sont représentées par des disques jaunes et rouges sur la carte.

Passer la souris dessus pour voir le nom de la station.

Cliquer dessus pour voir les observations et prévisions météorologiques.

Pour changer de carte: cliquez sur les boutons verts avec une croix noire pour zoomer, sur le bouton vert avec un tiret pour effectuer un zoom arrière, ou sur les flèches vertes pour les cartes adjacentes.


METAR-TAF: